createdAt,value
2023-03-17T06:03:04.495Z,29.80
2023-03-17T06:04:05.499Z,28.98
2023-03-17T06:05:05.510Z,28.86
2023-03-17T06:06:05.530Z,28.80
2023-03-17T06:07:05.565Z,28.79
2023-03-17T06:08:05.602Z,28.76
2023-03-17T06:09:04.658Z,28.72
2023-03-17T06:10:04.680Z,28.72
2023-03-17T06:11:05.689Z,28.69
2023-03-17T06:12:05.701Z,28.69
2023-03-17T06:13:05.688Z,28.65
2023-03-17T06:14:05.683Z,28.62
2023-03-17T06:15:05.715Z,28.65
2023-03-17T06:16:05.840Z,28.63
2023-03-17T06:17:05.820Z,28.63
2023-03-17T06:18:05.872Z,28.65
2023-03-17T06:19:06.009Z,28.59
2023-03-17T06:20:06.019Z,28.60
2023-03-17T06:21:05.043Z,28.60
2023-03-17T06:22:05.132Z,28.60
2023-03-17T06:23:06.240Z,28.60
2023-03-17T06:24:06.235Z,28.57
2023-03-17T06:25:06.291Z,28.57
2023-03-17T06:26:06.342Z,28.59
2023-03-17T06:27:06.410Z,28.56
2023-03-17T06:28:06.461Z,28.56
2023-03-17T06:29:06.510Z,28.57
2023-03-17T06:30:06.585Z,28.57
2023-03-17T06:31:07.448Z,28.53
2023-03-17T06:32:19.685Z,28.55
2023-03-17T06:33:06.771Z,28.56
2023-03-17T06:34:06.675Z,28.54
2023-03-17T06:35:06.774Z,28.54
2023-03-17T06:36:06.753Z,28.55
2023-03-17T06:37:06.633Z,28.50
2023-03-17T06:38:05.642Z,28.54
2023-03-17T06:39:06.630Z,28.49
2023-03-17T06:40:06.845Z,28.51
2023-03-17T06:41:06.621Z,28.56
2023-03-17T06:42:06.603Z,28.47
2023-03-17T06:43:06.589Z,28.46
2023-03-17T06:44:06.605Z,28.47
2023-03-17T06:45:06.596Z,28.50
2023-03-17T06:46:05.624Z,28.48
2023-03-17T06:47:06.571Z,28.48
2023-03-17T06:48:06.553Z,28.49
2023-03-17T06:49:05.591Z,28.45
2023-03-17T06:50:06.559Z,28.46
2023-03-17T06:51:06.564Z,28.49
2023-03-17T06:52:06.526Z,28.50
2023-03-17T06:53:06.513Z,28.50
2023-03-17T06:54:06.517Z,28.44
2023-03-17T06:55:06.513Z,28.49
2023-03-17T06:56:05.509Z,28.47
2023-03-17T06:57:05.592Z,28.45
2023-03-17T06:58:05.621Z,28.49
2023-03-17T06:59:05.680Z,28.43
2023-03-17T07:00:06.717Z,28.45
2023-03-17T07:01:05.794Z,28.47
2023-03-17T07:02:06.842Z,28.45
2023-03-17T07:03:06.873Z,28.47
2023-03-17T07:04:07.052Z,28.50
2023-03-17T07:05:07.005Z,28.51
2023-03-17T07:06:07.021Z,28.55
2023-03-17T07:07:06.128Z,28.53
2023-03-17T07:08:07.130Z,28.53
2023-03-17T07:09:07.189Z,28.53
2023-03-17T07:10:07.250Z,28.60
2023-03-17T07:11:07.294Z,28.66
2023-03-17T07:12:07.417Z,28.69
2023-03-17T07:13:07.431Z,28.72
2023-03-17T07:14:07.480Z,28.75
2023-03-17T07:15:07.555Z,28.82
2023-03-17T07:16:07.621Z,28.82
2023-03-17T07:17:06.637Z,28.84
2023-03-17T07:18:07.675Z,28.90
2023-03-17T07:19:07.786Z,28.96
2023-03-17T07:20:06.829Z,28.97
2023-03-17T07:21:07.860Z,29.01
2023-03-17T07:22:07.934Z,29.05
2023-03-17T07:23:07.974Z,29.11
2023-03-17T07:24:08.016Z,29.17
2023-03-17T07:25:08.074Z,29.20
2023-03-17T07:26:08.145Z,29.26
2023-03-17T07:27:08.204Z,29.27
2023-03-17T07:28:07.248Z,29.37
2023-03-17T07:29:08.303Z,29.40
2023-03-17T07:30:07.348Z,29.44
2023-03-17T07:31:07.435Z,29.51
2023-03-17T07:32:08.597Z,29.51
2023-03-17T07:33:08.612Z,29.59
2023-03-17T07:34:08.583Z,29.64
2023-03-17T07:35:08.637Z,29.66
2023-03-17T07:36:07.844Z,29.69
2023-03-17T07:37:07.761Z,29.73
2023-03-17T07:38:08.834Z,29.72
2023-03-17T07:39:11.503Z,29.83
2023-03-17T07:40:07.875Z,29.93
2023-03-17T07:41:07.881Z,30.01
2023-03-17T07:42:08.847Z,30.07
2023-03-17T07:43:08.833Z,30.12
2023-03-17T07:44:08.854Z,30.19
2023-03-17T07:45:07.845Z,30.23
2023-03-17T07:46:08.906Z,30.29
2023-03-17T07:47:08.830Z,30.31
2023-03-17T07:48:08.835Z,30.34
2023-03-17T07:49:08.845Z,30.42
2023-03-17T07:50:08.806Z,30.49
2023-03-17T07:51:08.840Z,30.55
2023-03-17T07:52:08.808Z,30.52
2023-03-17T07:53:08.797Z,30.43
2023-03-17T07:54:07.803Z,30.55
2023-03-17T07:55:08.809Z,30.41
2023-03-17T07:56:09.161Z,30.47
2023-03-17T07:57:08.746Z,30.48
2023-03-17T07:58:08.847Z,30.41
2023-03-17T07:59:07.774Z,30.47
2023-03-17T08:00:08.742Z,30.54
2023-03-17T08:01:08.727Z,30.55
2023-03-17T08:02:07.847Z,30.51
2023-03-17T08:03:10.720Z,30.48
2023-03-17T08:04:08.740Z,30.63
2023-03-17T08:05:08.684Z,30.51
2023-03-17T08:06:08.826Z,30.58
2023-03-17T08:07:07.670Z,30.51
2023-03-17T08:08:08.695Z,30.54
2023-03-17T08:09:08.652Z,30.60
2023-03-17T08:10:08.710Z,30.56
2023-03-17T08:11:07.702Z,30.52
2023-03-17T08:12:08.641Z,30.53
2023-03-17T08:13:07.623Z,30.57
2023-03-17T08:14:08.619Z,30.55
2023-03-17T08:15:07.617Z,30.46
2023-03-17T08:16:07.776Z,30.52
2023-03-17T08:17:07.763Z,30.48
2023-03-17T08:18:08.584Z,30.39
2023-03-17T08:19:08.566Z,30.43
2023-03-17T08:20:08.591Z,30.37
2023-03-17T08:21:08.621Z,30.36
2023-03-17T08:22:07.580Z,30.33
2023-03-17T08:23:08.560Z,30.32
2023-03-17T08:24:08.614Z,30.31
2023-03-17T08:25:07.536Z,30.28
2023-03-17T08:26:07.557Z,30.21
2023-03-17T08:27:08.543Z,30.24
2023-03-17T08:28:08.554Z,30.23
2023-03-17T08:29:08.521Z,30.19
2023-03-17T08:30:07.504Z,30.20
2023-03-17T08:31:11.097Z,30.13
2023-03-17T08:32:08.483Z,30.12
2023-03-17T08:33:08.631Z,30.10
2023-03-17T08:34:08.459Z,30.06
2023-03-17T08:35:08.467Z,30.06
2023-03-17T08:36:08.484Z,30.04
2023-03-17T08:37:11.267Z,30.04
2023-03-17T08:38:08.439Z,30.09
2023-03-17T08:39:08.497Z,30.10
2023-03-17T08:40:08.430Z,30.06
2023-03-17T08:41:08.480Z,30.06
2023-03-17T08:42:08.539Z,30.05
2023-03-17T08:43:08.407Z,30.02
2023-03-17T08:44:08.402Z,30.00
2023-03-17T08:45:08.406Z,30.02
2023-03-17T08:46:08.771Z,30.02
2023-03-17T08:47:07.409Z,30.03
2023-03-17T08:48:08.410Z,30.00
2023-03-17T08:49:08.359Z,30.01
2023-03-17T08:50:08.366Z,29.91
2023-03-17T08:51:08.750Z,29.91
2023-03-17T08:52:08.354Z,29.83
2023-03-17T08:53:08.370Z,29.75
2023-03-17T08:54:07.336Z,29.67
2023-03-17T08:55:08.319Z,29.56
2023-03-17T08:56:08.432Z,29.55
2023-03-17T08:57:08.319Z,29.32
2023-03-17T08:58:08.338Z,29.23
2023-03-17T08:59:07.284Z,29.23
2023-03-17T09:00:07.299Z,29.22
2023-03-17T09:01:08.340Z,29.07
2023-03-17T09:02:08.280Z,28.92
2023-03-17T09:03:08.273Z,28.81
2023-03-17T09:04:08.268Z,28.86
2023-03-17T09:05:07.243Z,28.79
2023-03-17T09:06:08.252Z,28.68
2023-03-17T09:07:09.570Z,28.64
2023-03-17T09:08:08.236Z,28.58
2023-03-17T09:09:08.229Z,28.49
2023-03-17T09:10:07.232Z,28.40
2023-03-17T09:11:08.237Z,28.31
2023-03-17T09:12:08.243Z,28.26
2023-03-17T09:13:08.250Z,28.10
2023-03-17T09:14:08.301Z,28.20
2023-03-17T09:15:08.272Z,28.42
2023-03-17T09:16:07.370Z,28.32
2023-03-17T09:17:07.292Z,28.17
2023-03-17T09:18:08.286Z,28.10
2023-03-17T09:19:08.305Z,28.08
2023-03-17T09:20:08.355Z,28.00
2023-03-17T09:21:08.313Z,27.95
2023-03-17T09:22:08.311Z,27.78
2023-03-17T09:23:08.454Z,27.80
2023-03-17T09:24:08.308Z,27.77
2023-03-17T09:25:08.306Z,27.83
2023-03-17T09:26:08.313Z,27.85
2023-03-17T09:27:08.294Z,27.91
2023-03-17T09:28:08.300Z,27.94
2023-03-17T09:29:08.307Z,27.76
2023-03-17T09:30:08.515Z,27.75
2023-03-17T09:31:08.395Z,27.71
2023-03-17T09:32:08.396Z,27.72
2023-03-17T09:33:07.327Z,27.87
2023-03-17T09:34:07.311Z,27.65
2023-03-17T09:35:08.317Z,27.55
2023-03-17T09:36:08.379Z,27.58
2023-03-17T09:37:08.323Z,27.47
2023-03-17T09:38:08.289Z,27.52
2023-03-17T09:39:08.313Z,27.51
2023-03-17T09:40:08.273Z,27.30
2023-03-17T09:41:08.705Z,27.18
2023-03-17T09:42:08.369Z,27.28
2023-03-17T09:43:08.328Z,27.37
2023-03-17T09:44:08.303Z,27.19
2023-03-17T09:45:08.327Z,27.06
2023-03-17T09:46:08.462Z,26.87
2023-03-17T09:47:08.269Z,26.78
2023-03-17T09:48:07.286Z,26.79
2023-03-17T09:49:08.272Z,26.79
2023-03-17T09:50:07.277Z,26.65
2023-03-17T09:51:08.269Z,26.64
2023-03-17T09:52:08.274Z,26.77
2023-03-17T09:53:08.292Z,26.70
2023-03-17T09:54:08.311Z,26.55
2023-03-17T09:55:08.352Z,26.64
2023-03-17T09:56:08.719Z,26.44
2023-03-17T09:57:08.355Z,26.66
2023-03-17T09:58:08.359Z,26.41
2023-03-17T09:59:07.343Z,26.57
2023-03-17T10:00:08.355Z,26.40
2023-03-17T10:01:08.347Z,26.29
2023-03-17T10:02:08.428Z,26.26
2023-03-17T10:03:08.344Z,26.49
2023-03-17T10:04:07.329Z,26.66
2023-03-17T10:05:08.418Z,26.77
2023-03-17T10:06:07.341Z,26.97
2023-03-17T10:07:07.338Z,27.34
2023-03-17T10:08:18.951Z,27.57
2023-03-17T10:10:08.334Z,28.11
2023-03-17T10:11:08.330Z,28.32
2023-03-17T10:12:08.376Z,28.34
2023-03-17T10:13:07.294Z,28.50
2023-03-17T10:14:08.295Z,28.83
2023-03-17T10:15:08.303Z,29.03
2023-03-17T10:16:08.458Z,29.16
2023-03-17T10:17:07.294Z,29.17
2023-03-17T10:18:08.277Z,29.22
2023-03-17T10:19:08.354Z,29.45
2023-03-17T10:20:07.250Z,29.53
2023-03-17T10:21:08.236Z,29.59
2023-03-17T10:22:08.231Z,29.65
2023-03-17T10:23:08.248Z,29.58
2023-03-17T10:24:08.216Z,29.92
2023-03-17T10:25:08.265Z,29.92
2023-03-17T10:26:08.332Z,30.05
2023-03-17T10:27:08.381Z,29.90
2023-03-17T10:28:09.201Z,30.02
2023-03-17T10:29:08.504Z,30.06
2023-03-17T10:30:08.555Z,30.00
2023-03-17T10:31:08.642Z,30.08
2023-03-17T10:32:08.608Z,30.30
2023-03-17T10:33:07.789Z,30.58
2023-03-17T10:34:07.745Z,30.48
2023-03-17T10:35:07.804Z,30.50
2023-03-17T10:36:08.885Z,30.41
2023-03-17T10:37:08.905Z,30.41
2023-03-17T10:38:14.337Z,30.35
2023-03-17T10:39:08.970Z,30.41
2023-03-17T10:40:08.938Z,30.39
2023-03-17T10:41:08.948Z,30.45
2023-03-17T10:42:08.932Z,30.51
2023-03-17T10:43:08.936Z,30.56
2023-03-17T10:44:07.906Z,30.56
2023-03-17T10:45:08.907Z,30.73
2023-03-17T10:46:09.223Z,30.72
2023-03-17T10:47:08.029Z,30.62
2023-03-17T10:48:08.890Z,30.81
2023-03-17T10:49:07.874Z,31.15
2023-03-17T10:50:08.903Z,31.38
2023-03-17T10:51:09.253Z,31.55
2023-03-17T10:52:08.879Z,31.71
2023-03-17T10:53:07.854Z,31.85
2023-03-17T10:54:08.872Z,31.82
2023-03-17T10:55:07.836Z,31.95
2023-03-17T10:56:08.836Z,31.99
2023-03-17T10:57:08.840Z,31.91
2023-03-17T10:58:08.809Z,31.92
2023-03-17T10:59:07.874Z,31.97
2023-03-17T11:00:08.809Z,33.77
2023-03-17T11:01:08.890Z,34.37
2023-03-17T11:02:08.815Z,32.34
2023-03-17T11:03:08.787Z,31.89
2023-03-17T11:04:08.855Z,31.75
2023-03-17T11:05:08.769Z,31.80
2023-03-17T11:06:08.809Z,32.09
2023-03-17T11:07:08.748Z,31.92
2023-03-17T11:08:08.744Z,31.89
2023-03-17T11:09:08.756Z,32.12
2023-03-17T11:10:08.754Z,32.13
2023-03-17T11:11:08.771Z,31.95
2023-03-17T11:12:08.843Z,31.80
2023-03-17T11:13:07.826Z,31.76
2023-03-17T11:14:08.833Z,31.96
2023-03-17T11:15:08.864Z,31.95
2023-03-17T11:16:08.924Z,31.93
2023-03-17T11:17:08.975Z,31.86
2023-03-17T11:18:08.944Z,32.16
2023-03-17T11:19:07.976Z,32.06
2023-03-17T11:20:09.008Z,32.08
2023-03-17T11:21:09.042Z,31.99
2023-03-17T11:22:09.108Z,32.23
2023-03-17T11:23:09.089Z,32.29
2023-03-17T11:24:09.173Z,32.18
2023-03-17T11:25:09.142Z,31.96
2023-03-17T11:26:09.171Z,31.99
2023-03-17T11:27:09.191Z,32.07
2023-03-17T11:28:09.278Z,32.15
2023-03-17T11:29:09.251Z,32.14
2023-03-17T11:30:08.281Z,31.91
2023-03-17T11:31:09.342Z,31.88
2023-03-17T11:32:09.346Z,32.99
2023-03-17T11:33:09.550Z,32.09
2023-03-17T11:34:09.408Z,31.75
2023-03-17T11:35:09.419Z,31.40
2023-03-17T11:36:09.525Z,31.62
2023-03-17T11:37:09.483Z,31.80
2023-03-17T11:38:09.569Z,31.93
2023-03-17T11:39:09.572Z,31.84
2023-03-17T11:40:08.611Z,31.78
2023-03-17T11:41:08.620Z,31.95
2023-03-17T11:42:09.757Z,31.69
2023-03-17T11:43:09.694Z,31.57
2023-03-17T11:44:08.733Z,31.63
2023-03-17T11:45:09.794Z,31.63
2023-03-17T11:46:09.864Z,31.46
2023-03-17T11:47:10.265Z,31.62
2023-03-17T11:48:09.873Z,31.70
2023-03-17T11:49:09.931Z,31.66
2023-03-17T11:50:09.942Z,31.71
2023-03-17T11:51:09.977Z,31.76
2023-03-17T11:52:09.017Z,31.95
2023-03-17T11:53:10.039Z,31.73
2023-03-17T11:54:10.151Z,31.84
2023-03-17T11:55:10.119Z,32.00
2023-03-17T11:56:09.163Z,32.30
2023-03-17T11:57:10.318Z,32.13
2023-03-17T11:58:10.259Z,32.00
2023-03-17T11:59:09.291Z,32.22
2023-03-17T12:00:10.338Z,32.42
2023-03-17T12:01:10.368Z,32.73
2023-03-17T12:02:10.461Z,32.84
2023-03-17T12:03:10.533Z,32.72
2023-03-17T12:04:10.498Z,32.69
2023-03-17T12:05:10.514Z,32.36
2023-03-17T12:06:10.537Z,32.40
2023-03-17T12:07:10.597Z,32.26
2023-03-17T12:08:10.607Z,32.55
2023-03-17T12:09:10.715Z,32.70
2023-03-17T12:11:10.713Z,32.45
2023-03-17T12:12:10.731Z,32.53
2023-03-17T12:13:10.752Z,32.40
2023-03-17T12:14:10.793Z,32.58
2023-03-17T12:15:10.839Z,32.84
2023-03-17T12:16:11.000Z,32.64
2023-03-17T12:17:10.915Z,32.51
2023-03-17T12:18:10.927Z,32.77
2023-03-17T12:19:10.951Z,33.01
2023-03-17T12:20:11.003Z,32.96
2023-03-17T12:21:10.996Z,32.84
2023-03-17T12:22:11.079Z,32.42
2023-03-17T12:23:11.035Z,32.94
2023-03-17T12:24:11.074Z,32.91
2023-03-17T12:25:11.113Z,32.74
2023-03-17T12:26:11.143Z,33.16
2023-03-17T12:27:11.175Z,33.13
2023-03-17T12:28:11.175Z,33.01
2023-03-17T12:29:11.197Z,33.02
2023-03-17T12:30:10.215Z,33.44
2023-03-17T12:31:11.320Z,33.24
2023-03-17T12:32:10.287Z,33.23
2023-03-17T12:33:11.416Z,33.32
2023-03-17T12:34:11.348Z,33.52
2023-03-17T12:35:11.359Z,33.45
2023-03-17T12:36:11.408Z,33.30
2023-03-17T12:37:11.398Z,33.10
2023-03-17T12:38:11.750Z,32.75
2023-03-17T12:39:11.454Z,32.62
2023-03-17T12:40:11.502Z,32.40
2023-03-17T12:41:11.529Z,32.22
2023-03-17T12:42:11.601Z,31.97
2023-03-17T12:43:13.619Z,31.90
2023-03-17T12:44:11.602Z,31.72
2023-03-17T12:45:11.600Z,31.63
2023-03-17T12:46:11.609Z,31.53
2023-03-17T12:47:10.583Z,31.48
2023-03-17T12:48:11.566Z,31.29
2023-03-17T12:49:11.569Z,31.30
2023-03-17T12:50:11.573Z,31.20
2023-03-17T12:51:11.574Z,31.07
2023-03-17T12:52:11.548Z,31.09
2023-03-17T12:53:11.547Z,30.88
2023-03-17T12:54:11.526Z,30.94
2023-03-17T12:55:11.514Z,30.88
2023-03-17T12:56:11.513Z,30.78
2023-03-17T12:57:11.510Z,30.75
2023-03-17T12:58:11.542Z,30.61
2023-03-17T12:59:11.482Z,30.51
2023-03-17T13:00:11.474Z,30.43
2023-03-17T13:01:11.533Z,30.52
2023-03-17T13:02:11.454Z,30.33
2023-03-17T13:03:11.504Z,30.27
2023-03-17T13:04:11.447Z,30.33
2023-03-17T13:05:11.446Z,30.24
2023-03-17T13:06:11.441Z,30.18
2023-03-17T13:07:10.434Z,30.13
2023-03-17T13:08:11.417Z,30.11
2023-03-17T13:09:11.414Z,30.10
2023-03-17T13:10:11.448Z,30.07
2023-03-17T13:11:11.465Z,30.04
2023-03-17T13:12:11.502Z,30.02
2023-03-17T13:13:11.565Z,30.02
2023-03-17T13:14:11.584Z,30.08
2023-03-17T13:15:11.585Z,30.08
2023-03-17T13:16:11.679Z,30.05
2023-03-17T13:17:11.693Z,30.06
2023-03-17T13:18:11.722Z,30.06
2023-03-17T13:19:12.766Z,30.04
2023-03-17T13:20:11.883Z,30.03
2023-03-17T13:21:11.865Z,30.03
2023-03-17T13:22:11.928Z,30.11
2023-03-17T13:23:11.986Z,30.10
2023-03-17T13:24:12.040Z,30.17
2023-03-17T13:25:12.090Z,30.18
2023-03-17T13:26:12.162Z,30.27
2023-03-17T13:27:12.195Z,29.99
2023-03-17T13:28:12.264Z,29.95
2023-03-17T13:29:12.281Z,29.95
2023-03-17T13:30:12.336Z,29.87
2023-03-17T13:31:12.384Z,29.82
2023-03-17T13:32:12.362Z,29.79
2023-03-17T13:33:12.511Z,29.85
2023-03-17T13:34:11.412Z,30.00
2023-03-17T13:35:12.415Z,29.91
2023-03-17T13:36:11.471Z,30.06
2023-03-17T13:37:11.425Z,30.21
2023-03-17T13:38:11.478Z,30.39
2023-03-17T13:39:19.161Z,30.25
2023-03-17T13:40:12.615Z,30.19
2023-03-17T13:41:12.541Z,30.23
2023-03-17T13:42:18.101Z,30.12
2023-03-17T13:43:12.515Z,29.93
2023-03-17T13:44:12.493Z,29.66
2023-03-17T13:45:11.493Z,29.64
2023-03-17T13:46:12.912Z,29.63
2023-03-17T13:47:11.478Z,29.48
2023-03-17T13:48:12.471Z,29.42
2023-03-17T13:49:11.455Z,29.44
2023-03-17T13:50:12.458Z,29.47
2023-03-17T13:51:14.981Z,29.41
2023-03-17T13:52:12.476Z,29.37
2023-03-17T13:53:11.439Z,29.33
2023-03-17T13:54:12.422Z,29.35
2023-03-17T13:55:12.431Z,29.36
2023-03-17T13:56:12.476Z,29.39
2023-03-17T13:57:11.393Z,29.38
2023-03-17T13:58:12.426Z,29.43
2023-03-17T13:59:12.395Z,29.45
2023-03-17T14:00:12.380Z,29.50
2023-03-17T14:01:11.429Z,29.48
2023-03-17T14:02:12.404Z,29.46
2023-03-17T14:03:12.358Z,29.47
2023-03-17T14:04:12.430Z,29.44
2023-03-17T14:05:11.348Z,29.42
2023-03-17T14:06:12.326Z,29.43
2023-03-17T14:07:12.337Z,29.46
2023-03-17T14:08:12.318Z,29.44
2023-03-17T14:09:12.328Z,29.43
2023-03-17T14:10:12.297Z,29.40
2023-03-17T14:11:12.331Z,29.41
2023-03-17T14:12:12.284Z,29.35
2023-03-17T14:13:12.306Z,29.25
2023-03-17T14:16:12.373Z,29.10
2023-03-17T14:17:12.260Z,29.05
2023-03-17T14:18:12.276Z,29.02
2023-03-17T14:19:12.259Z,28.94
2023-03-17T14:25:12.197Z,28.71
2023-03-17T14:26:12.186Z,28.69
2023-03-17T14:27:11.180Z,28.71
2023-03-17T14:28:12.171Z,28.74
2023-03-17T14:30:12.157Z,28.76
2023-03-17T14:31:12.191Z,28.76
2023-03-17T14:32:11.141Z,28.88
2023-03-17T14:33:12.480Z,29.28
2023-03-17T14:34:12.165Z,29.46
2023-03-17T14:35:12.135Z,30.05
2023-03-17T14:36:14.192Z,30.75
2023-03-17T14:37:12.106Z,31.44
2023-03-17T14:38:12.122Z,31.75
2023-03-17T14:39:12.106Z,31.93
2023-03-17T14:40:12.095Z,32.11
2023-03-17T14:41:12.097Z,32.37
2023-03-17T14:42:12.084Z,32.52
2023-03-17T14:43:12.071Z,32.65
2023-03-17T14:44:12.068Z,32.74
2023-03-17T14:45:12.056Z,32.65
2023-03-17T14:46:12.088Z,32.61
2023-03-17T14:47:12.278Z,32.66
2023-03-17T14:48:12.045Z,32.65
2023-03-17T14:49:12.046Z,32.73
2023-03-17T14:50:12.068Z,32.71
2023-03-17T14:51:12.042Z,32.70
2023-03-17T14:56:11.993Z,32.79
2023-03-17T14:58:11.975Z,32.86
2023-03-17T14:59:10.956Z,32.83
2023-03-17T15:00:11.953Z,32.84
2023-03-17T15:03:10.940Z,32.99
2023-03-17T15:06:11.928Z,33.05
2023-03-17T15:09:11.894Z,33.01
2023-03-17T15:12:11.870Z,33.14
2023-03-17T15:13:11.876Z,33.10
2023-03-17T15:14:11.853Z,33.06
